sensor_id;sensor_type;location;lat;lon;timestamp;temperature;humidity
21019;DHT22;10667;51.056;3.732;2022-12-29T00:02:16;11.80;99.90
21019;DHT22;10667;51.056;3.732;2022-12-29T00:04:42;12.00;99.90
21019;DHT22;10667;51.056;3.732;2022-12-29T00:07:08;12.00;99.90
21019;DHT22;10667;51.056;3.732;2022-12-29T00:09:34;12.10;99.90
21019;DHT22;10667;51.056;3.732;2022-12-29T00:12:01;12.10;99.90
21019;DHT22;10667;51.056;3.732;2022-12-29T00:14:27;12.20;99.90
21019;DHT22;10667;51.056;3.732;2022-12-29T00:17:12;12.20;99.90
21019;DHT22;10667;51.056;3.732;2022-12-29T00:19:38;12.20;99.90
21019;DHT22;10667;51.056;3.732;2022-12-29T00:22:22;12.30;99.90
21019;DHT22;10667;51.056;3.732;2022-12-29T00:25:11;12.30;99.90
21019;DHT22;10667;51.056;3.732;2022-12-29T00:27:56;12.40;99.90
21019;DHT22;10667;51.056;3.732;2022-12-29T00:30:40;12.40;99.90
21019;DHT22;10667;51.056;3.732;2022-12-29T00:33:33;12.50;99.90
21019;DHT22;10667;51.056;3.732;2022-12-29T00:36:32;12.50;99.90
21019;DHT22;10667;51.056;3.732;2022-12-29T00:39:09;12.40;99.90
21019;DHT22;10667;51.056;3.732;2022-12-29T00:41:54;12.40;99.90
21019;DHT22;10667;51.056;3.732;2022-12-29T00:44:38;12.40;99.90
21019;DHT22;10667;51.056;3.732;2022-12-29T00:47:04;12.40;99.90
21019;DHT22;10667;51.056;3.732;2022-12-29T00:49:30;12.40;99.90
21019;DHT22;10667;51.056;3.732;2022-12-29T00:52:02;12.50;99.90
21019;DHT22;10667;51.056;3.732;2022-12-29T00:54:30;12.50;99.90
21019;DHT22;10667;51.056;3.732;2022-12-29T00:56:56;12.40;99.90
21019;DHT22;10667;51.056;3.732;2022-12-29T00:59:22;12.40;99.90
21019;DHT22;10667;51.056;3.732;2022-12-29T01:01:49;12.50;99.90
21019;DHT22;10667;51.056;3.732;2022-12-29T01:04:16;12.50;99.90
21019;DHT22;10667;51.056;3.732;2022-12-29T01:06:42;12.50;99.90
21019;DHT22;10667;51.056;3.732;2022-12-29T01:09:08;12.60;99.90
21019;DHT22;10667;51.056;3.732;2022-12-29T01:11:53;12.60;99.90
21019;DHT22;10667;51.056;3.732;2022-12-29T01:14:19;12.50;99.90
21019;DHT22;10667;51.056;3.732;2022-12-29T01:16:46;12.50;99.90
21019;DHT22;10667;51.056;3.732;2022-12-29T01:19:12;12.60;99.90
21019;DHT22;10667;51.056;3.732;2022-12-29T01:21:38;12.50;99.90
21019;DHT22;10667;51.056;3.732;2022-12-29T01:24:04;12.50;99.90
21019;DHT22;10667;51.056;3.732;2022-12-29T01:26:30;12.50;99.90
21019;DHT22;10667;51.056;3.732;2022-12-29T01:28:56;12.50;99.90
21019;DHT22;10667;51.056;3.732;2022-12-29T01:31:21;12.50;99.90
21019;DHT22;10667;51.056;3.732;2022-12-29T01:33:47;12.50;99.90
21019;DHT22;10667;51.056;3.732;2022-12-29T01:36:15;12.50;99.90
21019;DHT22;10667;51.056;3.732;2022-12-29T01:38:41;12.50;99.90
21019;DHT22;10667;51.056;3.732;2022-12-29T01:41:09;12.50;99.90
21019;DHT22;10667;51.056;3.732;2022-12-29T01:43:41;12.50;99.90
21019;DHT22;10667;51.056;3.732;2022-12-29T01:46:34;12.40;99.90
21019;DHT22;10667;51.056;3.732;2022-12-29T01:51:35;12.40;99.90
21019;DHT22;10667;51.056;3.732;2022-12-29T01:54:05;12.30;99.90
21019;DHT22;10667;51.056;3.732;2022-12-29T01:56:33;12.30;99.90
21019;DHT22;10667;51.056;3.732;2022-12-29T01:59:07;12.20;99.90
21019;DHT22;10667;51.056;3.732;2022-12-29T02:01:36;12.30;99.90
21019;DHT22;10667;51.056;3.732;2022-12-29T02:04:03;12.30;99.90
21019;DHT22;10667;51.056;3.732;2022-12-29T02:06:33;12.30;99.90
21019;DHT22;10667;51.056;3.732;2022-12-29T02:09:01;12.30;99.90
21019;DHT22;10667;51.056;3.732;2022-12-29T02:11:29;12.20;99.90
21019;DHT22;10667;51.056;3.732;2022-12-29T02:13:55;12.20;99.90
21019;DHT22;10667;51.056;3.732;2022-12-29T02:19:43;12.10;99.90
21019;DHT22;10667;51.056;3.732;2022-12-29T02:22:42;12.10;99.90
21019;DHT22;10667;51.056;3.732;2022-12-29T02:27:57;12.00;99.90
21019;DHT22;10667;51.056;3.732;2022-12-29T02:30:44;12.00;99.90
21019;DHT22;10667;51.056;3.732;2022-12-29T02:36:59;12.20;99.90
21019;DHT22;10667;51.056;3.732;2022-12-29T02:39:38;12.20;99.90
21019;DHT22;10667;51.056;3.732;2022-12-29T02:45:08;12.20;99.90
21019;DHT22;10667;51.056;3.732;2022-12-29T02:47:56;12.20;99.90
21019;DHT22;10667;51.056;3.732;2022-12-29T02:50:29;12.10;99.90
21019;DHT22;10667;51.056;3.732;2022-12-29T02:53:01;12.10;99.90
21019;DHT22;10667;51.056;3.732;2022-12-29T02:55:27;12.10;99.90
21019;DHT22;10667;51.056;3.732;2022-12-29T03:00:39;12.10;99.90
21019;DHT22;10667;51.056;3.732;2022-12-29T03:06:00;12.00;99.90
21019;DHT22;10667;51.056;3.732;2022-12-29T03:08:53;12.00;99.90
21019;DHT22;10667;51.056;3.732;2022-12-29T03:11:24;12.00;99.90
21019;DHT22;10667;51.056;3.732;2022-12-29T03:14:21;12.00;99.90
21019;DHT22;10667;51.056;3.732;2022-12-29T03:17:39;12.10;99.90
21019;DHT22;10667;51.056;3.732;2022-12-29T03:20:11;12.00;99.90
21019;DHT22;10667;51.056;3.732;2022-12-29T03:22:43;12.00;99.90
21019;DHT22;10667;51.056;3.732;2022-12-29T03:25:18;11.90;99.90
21019;DHT22;10667;51.056;3.732;2022-12-29T03:28:26;11.90;99.90
21019;DHT22;10667;51.056;3.732;2022-12-29T03:30:43;11.90;99.90
21019;DHT22;10667;51.056;3.732;2022-12-29T03:33:14;11.90;99.90
21019;DHT22;10667;51.056;3.732;2022-12-29T03:35:42;11.80;99.90
21019;DHT22;10667;51.056;3.732;2022-12-29T03:38:19;11.80;99.90
21019;DHT22;10667;51.056;3.732;2022-12-29T03:40:52;11.80;99.90
21019;DHT22;10667;51.056;3.732;2022-12-29T03:43:21;11.80;99.90
21019;DHT22;10667;51.056;3.732;2022-12-29T03:45:47;11.80;99.90
21019;DHT22;10667;51.056;3.732;2022-12-29T03:48:13;11.70;99.90
21019;DHT22;10667;51.056;3.732;2022-12-29T03:50:38;11.70;99.90
21019;DHT22;10667;51.056;3.732;2022-12-29T03:53:04;11.70;99.90
21019;DHT22;10667;51.056;3.732;2022-12-29T03:55:30;11.70;99.90
21019;DHT22;10667;51.056;3.732;2022-12-29T03:57:55;11.70;99.90
21019;DHT22;10667;51.056;3.732;2022-12-29T04:00:21;11.80;99.90
21019;DHT22;10667;51.056;3.732;2022-12-29T04:02:47;11.70;99.90
21019;DHT22;10667;51.056;3.732;2022-12-29T04:05:12;11.70;99.90
21019;DHT22;10667;51.056;3.732;2022-12-29T04:07:38;11.70;99.90
21019;DHT22;10667;51.056;3.732;2022-12-29T04:10:04;11.60;99.90
21019;DHT22;10667;51.056;3.732;2022-12-29T04:12:30;11.60;99.90
21019;DHT22;10667;51.056;3.732;2022-12-29T04:14:56;11.60;99.90
21019;DHT22;10667;51.056;3.732;2022-12-29T04:17:21;11.60;99.90
21019;DHT22;10667;51.056;3.732;2022-12-29T04:19:47;11.60;99.90
21019;DHT22;10667;51.056;3.732;2022-12-29T04:22:13;11.60;99.90
21019;DHT22;10667;51.056;3.732;2022-12-29T04:24:38;11.60;99.90
21019;DHT22;10667;51.056;3.732;2022-12-29T04:27:04;11.60;99.90
21019;DHT22;10667;51.056;3.732;2022-12-29T04:29:30;11.60;99.90
21019;DHT22;10667;51.056;3.732;2022-12-29T04:31:55;11.60;99.90
21019;DHT22;10667;51.056;3.732;2022-12-29T04:34:21;11.60;99.90
21019;DHT22;10667;51.056;3.732;2022-12-29T04:36:47;11.50;99.90
21019;DHT22;10667;51.056;3.732;2022-12-29T04:39:12;11.40;99.90
21019;DHT22;10667;51.056;3.732;2022-12-29T04:41:38;11.40;99.90
21019;DHT22;10667;51.056;3.732;2022-12-29T04:44:04;11.40;99.90
21019;DHT22;10667;51.056;3.732;2022-12-29T04:46:30;11.60;99.90
21019;DHT22;10667;51.056;3.732;2022-12-29T04:48:55;11.60;99.90
21019;DHT22;10667;51.056;3.732;2022-12-29T04:51:21;11.60;99.90
21019;DHT22;10667;51.056;3.732;2022-12-29T04:53:47;11.70;99.90
21019;DHT22;10667;51.056;3.732;2022-12-29T04:56:13;11.60;99.90
21019;DHT22;10667;51.056;3.732;2022-12-29T04:58:39;11.60;99.90
21019;DHT22;10667;51.056;3.732;2022-12-29T05:01:05;11.50;99.90
21019;DHT22;10667;51.056;3.732;2022-12-29T05:03:30;11.50;99.90
21019;DHT22;10667;51.056;3.732;2022-12-29T05:05:57;11.40;99.90
21019;DHT22;10667;51.056;3.732;2022-12-29T05:08:23;11.40;99.90
21019;DHT22;10667;51.056;3.732;2022-12-29T05:10:50;11.40;99.90
21019;DHT22;10667;51.056;3.732;2022-12-29T05:13:16;11.40;99.90
21019;DHT22;10667;51.056;3.732;2022-12-29T05:15:52;11.50;99.90
21019;DHT22;10667;51.056;3.732;2022-12-29T05:18:18;11.40;99.90
21019;DHT22;10667;51.056;3.732;2022-12-29T05:20:45;11.40;99.90
21019;DHT22;10667;51.056;3.732;2022-12-29T05:23:11;11.30;99.90
21019;DHT22;10667;51.056;3.732;2022-12-29T05:25:37;11.40;99.90
21019;DHT22;10667;51.056;3.732;2022-12-29T05:28:03;11.40;99.90
21019;DHT22;10667;51.056;3.732;2022-12-29T05:30:28;11.30;99.90
21019;DHT22;10667;51.056;3.732;2022-12-29T05:32:54;11.30;99.90
21019;DHT22;10667;51.056;3.732;2022-12-29T05:35:20;11.20;99.90
21019;DHT22;10667;51.056;3.732;2022-12-29T05:37:45;11.20;99.90
21019;DHT22;10667;51.056;3.732;2022-12-29T05:40:11;11.30;99.90
21019;DHT22;10667;51.056;3.732;2022-12-29T05:42:37;11.30;99.90
21019;DHT22;10667;51.056;3.732;2022-12-29T05:45:03;11.30;99.90
21019;DHT22;10667;51.056;3.732;2022-12-29T05:47:29;11.30;99.90
21019;DHT22;10667;51.056;3.732;2022-12-29T05:49:55;11.30;99.90
21019;DHT22;10667;51.056;3.732;2022-12-29T05:52:20;11.30;99.90
21019;DHT22;10667;51.056;3.732;2022-12-29T05:54:46;11.30;99.90
21019;DHT22;10667;51.056;3.732;2022-12-29T05:57:12;11.30;99.90
21019;DHT22;10667;51.056;3.732;2022-12-29T05:59:37;11.30;99.90
21019;DHT22;10667;51.056;3.732;2022-12-29T06:02:03;11.30;99.90
21019;DHT22;10667;51.056;3.732;2022-12-29T06:04:29;11.30;99.90
21019;DHT22;10667;51.056;3.732;2022-12-29T06:06:54;11.30;99.90
21019;DHT22;10667;51.056;3.732;2022-12-29T06:09:20;11.40;99.90
21019;DHT22;10667;51.056;3.732;2022-12-29T06:11:46;11.30;99.90
21019;DHT22;10667;51.056;3.732;2022-12-29T06:14:11;11.40;99.90
21019;DHT22;10667;51.056;3.732;2022-12-29T06:16:37;11.40;99.90
21019;DHT22;10667;51.056;3.732;2022-12-29T06:19:03;11.40;99.90
21019;DHT22;10667;51.056;3.732;2022-12-29T06:21:28;11.40;99.90
21019;DHT22;10667;51.056;3.732;2022-12-29T06:23:54;11.40;99.90
21019;DHT22;10667;51.056;3.732;2022-12-29T06:26:20;11.40;99.90
21019;DHT22;10667;51.056;3.732;2022-12-29T06:28:45;11.50;99.90
21019;DHT22;10667;51.056;3.732;2022-12-29T06:31:11;11.50;99.90
21019;DHT22;10667;51.056;3.732;2022-12-29T06:33:38;11.50;99.90
21019;DHT22;10667;51.056;3.732;2022-12-29T06:36:04;11.50;99.90
21019;DHT22;10667;51.056;3.732;2022-12-29T06:38:30;11.40;99.90
21019;DHT22;10667;51.056;3.732;2022-12-29T06:40:55;11.30;99.90
21019;DHT22;10667;51.056;3.732;2022-12-29T06:43:21;11.20;99.90
21019;DHT22;10667;51.056;3.732;2022-12-29T06:45:47;11.20;99.90
21019;DHT22;10667;51.056;3.732;2022-12-29T06:48:12;11.10;99.90
21019;DHT22;10667;51.056;3.732;2022-12-29T06:50:38;11.20;99.90
21019;DHT22;10667;51.056;3.732;2022-12-29T06:53:04;11.20;99.90
21019;DHT22;10667;51.056;3.732;2022-12-29T06:55:30;11.20;99.90
21019;DHT22;10667;51.056;3.732;2022-12-29T06:57:57;11.20;99.90
21019;DHT22;10667;51.056;3.732;2022-12-29T07:00:23;11.20;99.90
21019;DHT22;10667;51.056;3.732;2022-12-29T07:02:49;11.30;99.90
21019;DHT22;10667;51.056;3.732;2022-12-29T07:05:15;11.30;99.90
21019;DHT22;10667;51.056;3.732;2022-12-29T07:07:41;11.30;99.90
21019;DHT22;10667;51.056;3.732;2022-12-29T07:10:07;11.30;99.90
21019;DHT22;10667;51.056;3.732;2022-12-29T07:12:33;11.30;99.90
21019;DHT22;10667;51.056;3.732;2022-12-29T07:14:58;11.30;99.90
21019;DHT22;10667;51.056;3.732;2022-12-29T07:17:24;11.30;99.90
21019;DHT22;10667;51.056;3.732;2022-12-29T07:19:50;11.40;99.90
21019;DHT22;10667;51.056;3.732;2022-12-29T07:22:15;11.40;99.90
21019;DHT22;10667;51.056;3.732;2022-12-29T07:24:41;11.40;99.90
21019;DHT22;10667;51.056;3.732;2022-12-29T07:27:08;11.40;99.90
21019;DHT22;10667;51.056;3.732;2022-12-29T07:29:36;11.40;99.90
21019;DHT22;10667;51.056;3.732;2022-12-29T07:32:02;11.40;99.90
21019;DHT22;10667;51.056;3.732;2022-12-29T07:34:27;11.40;99.90
21019;DHT22;10667;51.056;3.732;2022-12-29T07:36:53;11.40;99.90
21019;DHT22;10667;51.056;3.732;2022-12-29T07:39:18;11.40;99.90
21019;DHT22;10667;51.056;3.732;2022-12-29T07:41:44;11.40;99.90
21019;DHT22;10667;51.056;3.732;2022-12-29T07:44:10;11.50;99.90
21019;DHT22;10667;51.056;3.732;2022-12-29T07:46:36;11.50;99.90
21019;DHT22;10667;51.056;3.732;2022-12-29T07:49:02;11.40;99.90
21019;DHT22;10667;51.056;3.732;2022-12-29T07:51:27;11.40;99.90
21019;DHT22;10667;51.056;3.732;2022-12-29T07:53:53;11.30;99.90
21019;DHT22;10667;51.056;3.732;2022-12-29T07:56:19;11.30;99.90
21019;DHT22;10667;51.056;3.732;2022-12-29T07:58:44;11.30;99.90
21019;DHT22;10667;51.056;3.732;2022-12-29T08:01:10;11.30;99.90
21019;DHT22;10667;51.056;3.732;2022-12-29T08:03:36;11.30;99.90
21019;DHT22;10667;51.056;3.732;2022-12-29T08:06:02;11.30;99.90
21019;DHT22;10667;51.056;3.732;2022-12-29T08:08:27;11.30;99.90
21019;DHT22;10667;51.056;3.732;2022-12-29T08:10:54;11.30;99.90
21019;DHT22;10667;51.056;3.732;2022-12-29T08:13:20;11.20;99.90
21019;DHT22;10667;51.056;3.732;2022-12-29T08:15:45;11.20;99.90
21019;DHT22;10667;51.056;3.732;2022-12-29T08:18:11;11.20;99.90
21019;DHT22;10667;51.056;3.732;2022-12-29T08:20:37;11.20;99.90
21019;DHT22;10667;51.056;3.732;2022-12-29T08:23:02;11.30;99.90
21019;DHT22;10667;51.056;3.732;2022-12-29T08:25:28;11.20;99.90
21019;DHT22;10667;51.056;3.732;2022-12-29T08:27:54;11.20;99.90
21019;DHT22;10667;51.056;3.732;2022-12-29T08:30:19;11.20;99.90
21019;DHT22;10667;51.056;3.732;2022-12-29T08:32:45;11.10;99.90
21019;DHT22;10667;51.056;3.732;2022-12-29T08:35:11;11.10;99.90
21019;DHT22;10667;51.056;3.732;2022-12-29T08:37:38;10.90;99.90
21019;DHT22;10667;51.056;3.732;2022-12-29T08:40:04;10.80;99.90
21019;DHT22;10667;51.056;3.732;2022-12-29T08:42:31;10.80;99.90
21019;DHT22;10667;51.056;3.732;2022-12-29T08:44:58;10.80;99.90
21019;DHT22;10667;51.056;3.732;2022-12-29T08:47:25;10.80;99.90
21019;DHT22;10667;51.056;3.732;2022-12-29T08:49:51;10.80;99.90
21019;DHT22;10667;51.056;3.732;2022-12-29T08:52:16;10.70;99.90
21019;DHT22;10667;51.056;3.732;2022-12-29T08:54:42;10.60;99.90
21019;DHT22;10667;51.056;3.732;2022-12-29T08:57:08;10.50;99.90
21019;DHT22;10667;51.056;3.732;2022-12-29T08:59:33;10.50;99.90
21019;DHT22;10667;51.056;3.732;2022-12-29T09:01:59;10.50;99.90
21019;DHT22;10667;51.056;3.732;2022-12-29T09:04:25;10.50;99.90
21019;DHT22;10667;51.056;3.732;2022-12-29T09:06:52;10.50;99.90
21019;DHT22;10667;51.056;3.732;2022-12-29T09:09:18;10.50;99.90
21019;DHT22;10667;51.056;3.732;2022-12-29T09:11:44;10.50;99.90
21019;DHT22;10667;51.056;3.732;2022-12-29T09:14:10;10.50;99.90
21019;DHT22;10667;51.056;3.732;2022-12-29T09:16:36;10.50;99.90
21019;DHT22;10667;51.056;3.732;2022-12-29T09:19:03;10.50;99.90
21019;DHT22;10667;51.056;3.732;2022-12-29T09:21:28;10.50;99.90
21019;DHT22;10667;51.056;3.732;2022-12-29T09:23:54;10.60;99.90
21019;DHT22;10667;51.056;3.732;2022-12-29T09:26:20;10.60;99.90
21019;DHT22;10667;51.056;3.732;2022-12-29T09:28:46;10.60;99.90
21019;DHT22;10667;51.056;3.732;2022-12-29T09:31:12;10.60;99.90
21019;DHT22;10667;51.056;3.732;2022-12-29T09:33:38;10.60;99.90
21019;DHT22;10667;51.056;3.732;2022-12-29T09:36:04;10.50;99.90
21019;DHT22;10667;51.056;3.732;2022-12-29T09:38:30;10.50;99.90
21019;DHT22;10667;51.056;3.732;2022-12-29T09:41:13;10.60;99.90
21019;DHT22;10667;51.056;3.732;2022-12-29T09:46:35;10.70;99.90
21019;DHT22;10667;51.056;3.732;2022-12-29T09:51:45;10.70;99.90
21019;DHT22;10667;51.056;3.732;2022-12-29T09:54:22;10.70;99.90
21019;DHT22;10667;51.056;3.732;2022-12-29T09:56:49;10.70;99.90
21019;DHT22;10667;51.056;3.732;2022-12-29T09:59:18;10.70;99.90
21019;DHT22;10667;51.056;3.732;2022-12-29T10:01:53;10.70;99.90
21019;DHT22;10667;51.056;3.732;2022-12-29T10:04:20;10.60;99.90
21019;DHT22;10667;51.056;3.732;2022-12-29T10:06:54;10.70;99.90
21019;DHT22;10667;51.056;3.732;2022-12-29T10:09:35;10.70;99.90
21019;DHT22;10667;51.056;3.732;2022-12-29T10:12:16;10.70;99.90
21019;DHT22;10667;51.056;3.732;2022-12-29T10:14:58;10.80;99.90
21019;DHT22;10667;51.056;3.732;2022-12-29T10:17:39;10.70;99.90
21019;DHT22;10667;51.056;3.732;2022-12-29T10:20:30;10.80;99.90
21019;DHT22;10667;51.056;3.732;2022-12-29T10:25:35;10.80;99.90
21019;DHT22;10667;51.056;3.732;2022-12-29T10:28:11;10.80;99.90
21019;DHT22;10667;51.056;3.732;2022-12-29T10:30:40;10.90;99.90
21019;DHT22;10667;51.056;3.732;2022-12-29T10:33:08;10.90;99.90
21019;DHT22;10667;51.056;3.732;2022-12-29T10:35:39;10.90;99.90
21019;DHT22;10667;51.056;3.732;2022-12-29T10:40:57;11.00;99.90
21019;DHT22;10667;51.056;3.732;2022-12-29T10:43:33;10.90;99.90
21019;DHT22;10667;51.056;3.732;2022-12-29T10:46:07;11.00;99.90
21019;DHT22;10667;51.056;3.732;2022-12-29T10:48:35;11.10;99.90
21019;DHT22;10667;51.056;3.732;2022-12-29T10:51:04;11.10;99.90
21019;DHT22;10667;51.056;3.732;2022-12-29T10:53:45;11.10;99.90
21019;DHT22;10667;51.056;3.732;2022-12-29T10:56:40;11.10;99.90
21019;DHT22;10667;51.056;3.732;2022-12-29T11:01:56;11.20;99.90
21019;DHT22;10667;51.056;3.732;2022-12-29T11:05:15;11.20;99.90
21019;DHT22;10667;51.056;3.732;2022-12-29T11:07:21;11.20;99.90
21019;DHT22;10667;51.056;3.732;2022-12-29T11:09:47;11.30;99.90
21019;DHT22;10667;51.056;3.732;2022-12-29T11:12:23;11.30;99.90
21019;DHT22;10667;51.056;3.732;2022-12-29T11:15:15;11.40;99.90
21019;DHT22;10667;51.056;3.732;2022-12-29T11:17:46;11.60;99.90
21019;DHT22;10667;51.056;3.732;2022-12-29T11:20:35;11.60;99.90
21019;DHT22;10667;51.056;3.732;2022-12-29T11:23:04;11.50;99.90
21019;DHT22;10667;51.056;3.732;2022-12-29T11:25:30;11.50;99.90
21019;DHT22;10667;51.056;3.732;2022-12-29T11:28:02;11.40;99.90
21019;DHT22;10667;51.056;3.732;2022-12-29T11:30:31;11.30;99.90
21019;DHT22;10667;51.056;3.732;2022-12-29T11:32:58;11.40;99.90
21019;DHT22;10667;51.056;3.732;2022-12-29T11:35:40;11.40;99.90
21019;DHT22;10667;51.056;3.732;2022-12-29T11:38:24;11.30;99.90
21019;DHT22;10667;51.056;3.732;2022-12-29T11:40:51;11.30;99.90
21019;DHT22;10667;51.056;3.732;2022-12-29T11:43:38;11.20;99.90
21019;DHT22;10667;51.056;3.732;2022-12-29T11:46:05;11.10;99.90
21019;DHT22;10667;51.056;3.732;2022-12-29T11:48:41;11.00;99.90
21019;DHT22;10667;51.056;3.732;2022-12-29T11:51:07;10.80;99.90
21019;DHT22;10667;51.056;3.732;2022-12-29T11:53:51;10.80;99.90
21019;DHT22;10667;51.056;3.732;2022-12-29T11:56:30;10.70;99.90
21019;DHT22;10667;51.056;3.732;2022-12-29T11:58:57;10.70;99.90
21019;DHT22;10667;51.056;3.732;2022-12-29T12:01:36;10.60;99.90
21019;DHT22;10667;51.056;3.732;2022-12-29T12:04:13;10.50;99.90
21019;DHT22;10667;51.056;3.732;2022-12-29T12:06:48;10.50;99.90
21019;DHT22;10667;51.056;3.732;2022-12-29T12:09:19;10.50;99.90
21019;DHT22;10667;51.056;3.732;2022-12-29T12:11:52;10.50;99.90
21019;DHT22;10667;51.056;3.732;2022-12-29T12:14:51;10.50;99.90
21019;DHT22;10667;51.056;3.732;2022-12-29T12:17:33;10.50;99.90
21019;DHT22;10667;51.056;3.732;2022-12-29T12:20:34;10.60;99.90
21019;DHT22;10667;51.056;3.732;2022-12-29T12:23:22;10.60;99.90
21019;DHT22;10667;51.056;3.732;2022-12-29T12:29:20;10.70;99.90
21019;DHT22;10667;51.056;3.732;2022-12-29T12:34:35;10.90;99.90
21019;DHT22;10667;51.056;3.732;2022-12-29T12:37:38;10.80;99.90
21019;DHT22;10667;51.056;3.732;2022-12-29T12:51:57;11.00;99.90
21019;DHT22;10667;51.056;3.732;2022-12-29T12:57:40;10.90;99.90
21019;DHT22;10667;51.056;3.732;2022-12-29T13:00:13;10.90;99.90
21019;DHT22;10667;51.056;3.732;2022-12-29T13:03:17;10.90;99.90
21019;DHT22;10667;51.056;3.732;2022-12-29T13:13:52;10.80;99.90
21019;DHT22;10667;51.056;3.732;2022-12-29T13:22:13;10.70;99.90
21019;DHT22;10667;51.056;3.732;2022-12-29T13:27:44;10.70;99.90
21019;DHT22;10667;51.056;3.732;2022-12-29T13:30:31;10.60;99.90
21019;DHT22;10667;51.056;3.732;2022-12-29T13:35:52;10.40;99.90
21019;DHT22;10667;51.056;3.732;2022-12-29T13:38:40;10.40;99.90
21019;DHT22;10667;51.056;3.732;2022-12-29T13:44:05;10.20;99.90
21019;DHT22;10667;51.056;3.732;2022-12-29T13:46:42;10.30;99.90
21019;DHT22;10667;51.056;3.732;2022-12-29T13:49:19;10.30;99.90
21019;DHT22;10667;51.056;3.732;2022-12-29T13:51:51;10.30;99.90
21019;DHT22;10667;51.056;3.732;2022-12-29T13:57:10;10.30;99.90
21019;DHT22;10667;51.056;3.732;2022-12-29T13:59:59;10.30;99.90
21019;DHT22;10667;51.056;3.732;2022-12-29T14:02:42;10.30;99.90
21019;DHT22;10667;51.056;3.732;2022-12-29T14:07:48;10.20;99.90
21019;DHT22;10667;51.056;3.732;2022-12-29T14:13:20;10.20;99.90
21019;DHT22;10667;51.056;3.732;2022-12-29T14:15:52;10.20;99.90
21019;DHT22;10667;51.056;3.732;2022-12-29T14:18:21;10.30;99.90
21019;DHT22;10667;51.056;3.732;2022-12-29T14:21:00;10.30;99.90
21019;DHT22;10667;51.056;3.732;2022-12-29T14:23:40;10.30;99.90
21019;DHT22;10667;51.056;3.732;2022-12-29T14:28:40;10.10;99.90
21019;DHT22;10667;51.056;3.732;2022-12-29T14:37:00;10.10;99.90
21019;DHT22;10667;51.056;3.732;2022-12-29T14:39:39;10.10;99.90
21019;DHT22;10667;51.056;3.732;2022-12-29T14:42:15;10.00;99.90
21019;DHT22;10667;51.056;3.732;2022-12-29T14:50:06;10.10;99.90
21019;DHT22;10667;51.056;3.732;2022-12-29T14:52:49;10.10;99.90
21019;DHT22;10667;51.056;3.732;2022-12-29T14:57:52;10.20;99.90
21019;DHT22;10667;51.056;3.732;2022-12-29T15:00:26;10.20;99.90
21019;DHT22;10667;51.056;3.732;2022-12-29T15:03:12;10.10;99.90
21019;DHT22;10667;51.056;3.732;2022-12-29T15:05:45;10.10;99.90
21019;DHT22;10667;51.056;3.732;2022-12-29T15:08:13;10.10;99.90
21019;DHT22;10667;51.056;3.732;2022-12-29T15:11:15;10.10;99.90
21019;DHT22;10667;51.056;3.732;2022-12-29T15:13:43;10.10;99.90
21019;DHT22;10667;51.056;3.732;2022-12-29T15:16:35;10.00;99.90
21019;DHT22;10667;51.056;3.732;2022-12-29T15:19:02;10.00;99.90
21019;DHT22;10667;51.056;3.732;2022-12-29T15:21:32;10.00;99.90
21019;DHT22;10667;51.056;3.732;2022-12-29T15:23:59;10.00;99.90
21019;DHT22;10667;51.056;3.732;2022-12-29T15:26:42;10.00;99.90
21019;DHT22;10667;51.056;3.732;2022-12-29T15:29:29;10.00;99.90
21019;DHT22;10667;51.056;3.732;2022-12-29T15:31:58;9.90;99.90
21019;DHT22;10667;51.056;3.732;2022-12-29T15:34:24;9.80;99.90
21019;DHT22;10667;51.056;3.732;2022-12-29T15:36:50;9.70;99.90
21019;DHT22;10667;51.056;3.732;2022-12-29T15:39:30;9.70;99.90
21019;DHT22;10667;51.056;3.732;2022-12-29T15:42:02;9.70;99.90
21019;DHT22;10667;51.056;3.732;2022-12-29T15:44:34;9.70;99.90
21019;DHT22;10667;51.056;3.732;2022-12-29T15:47:06;9.70;99.90
21019;DHT22;10667;51.056;3.732;2022-12-29T15:49:35;9.70;99.90
21019;DHT22;10667;51.056;3.732;2022-12-29T15:52:07;9.70;99.90
21019;DHT22;10667;51.056;3.732;2022-12-29T15:54:33;9.70;99.90
21019;DHT22;10667;51.056;3.732;2022-12-29T15:56:59;9.60;99.90
21019;DHT22;10667;51.056;3.732;2022-12-29T15:59:31;9.50;99.90
21019;DHT22;10667;51.056;3.732;2022-12-29T16:01:59;9.50;99.90
21019;DHT22;10667;51.056;3.732;2022-12-29T16:04:30;9.50;99.90
21019;DHT22;10667;51.056;3.732;2022-12-29T16:07:03;9.40;99.90
21019;DHT22;10667;51.056;3.732;2022-12-29T16:09:34;9.40;99.90
21019;DHT22;10667;51.056;3.732;2022-12-29T16:12:13;9.40;99.90
21019;DHT22;10667;51.056;3.732;2022-12-29T16:14:43;9.40;99.90
21019;DHT22;10667;51.056;3.732;2022-12-29T16:17:15;9.30;99.90
21019;DHT22;10667;51.056;3.732;2022-12-29T16:19:50;9.30;99.90
21019;DHT22;10667;51.056;3.732;2022-12-29T16:22:32;9.30;99.90
21019;DHT22;10667;51.056;3.732;2022-12-29T16:25:02;9.30;99.90
21019;DHT22;10667;51.056;3.732;2022-12-29T16:27:38;9.30;99.90
21019;DHT22;10667;51.056;3.732;2022-12-29T16:30:19;9.30;99.90
21019;DHT22;10667;51.056;3.732;2022-12-29T16:32:48;9.30;99.90
21019;DHT22;10667;51.056;3.732;2022-12-29T16:35:24;9.20;99.90
21019;DHT22;10667;51.056;3.732;2022-12-29T16:38:15;9.30;99.90
21019;DHT22;10667;51.056;3.732;2022-12-29T16:40:54;9.20;99.90
21019;DHT22;10667;51.056;3.732;2022-12-29T16:43:23;9.30;99.90
21019;DHT22;10667;51.056;3.732;2022-12-29T16:48:23;9.20;99.90
21019;DHT22;10667;51.056;3.732;2022-12-29T16:50:51;9.20;99.90
21019;DHT22;10667;51.056;3.732;2022-12-29T16:53:26;9.20;99.90
21019;DHT22;10667;51.056;3.732;2022-12-29T16:55:53;9.20;99.90
21019;DHT22;10667;51.056;3.732;2022-12-29T16:58:25;9.20;99.90
21019;DHT22;10667;51.056;3.732;2022-12-29T17:01:00;9.20;99.90
21019;DHT22;10667;51.056;3.732;2022-12-29T17:03:38;9.10;99.90
21019;DHT22;10667;51.056;3.732;2022-12-29T17:06:04;9.20;99.90
21019;DHT22;10667;51.056;3.732;2022-12-29T17:08:40;9.10;99.90
21019;DHT22;10667;51.056;3.732;2022-12-29T17:16:41;9.10;99.90
21019;DHT22;10667;51.056;3.732;2022-12-29T17:19:11;9.10;99.90
21019;DHT22;10667;51.056;3.732;2022-12-29T17:21:37;9.20;99.90
21019;DHT22;10667;51.056;3.732;2022-12-29T17:24:07;9.20;99.90
21019;DHT22;10667;51.056;3.732;2022-12-29T17:26:34;9.30;99.90
21019;DHT22;10667;51.056;3.732;2022-12-29T17:29:01;9.40;99.90
21019;DHT22;10667;51.056;3.732;2022-12-29T17:31:26;9.30;99.90
21019;DHT22;10667;51.056;3.732;2022-12-29T17:33:52;9.30;99.90
21019;DHT22;10667;51.056;3.732;2022-12-29T17:36:20;9.20;99.90
21019;DHT22;10667;51.056;3.732;2022-12-29T17:38:46;9.20;99.90
21019;DHT22;10667;51.056;3.732;2022-12-29T17:41:13;9.20;99.90
21019;DHT22;10667;51.056;3.732;2022-12-29T17:43:39;9.20;99.90
21019;DHT22;10667;51.056;3.732;2022-12-29T17:46:06;9.20;99.90
21019;DHT22;10667;51.056;3.732;2022-12-29T17:48:33;9.30;99.90